LEPP/PNA METAR and TAF weather

Enter ICAO airport designator
Station Type Date Time Source
LEPP METAR 2020/01/27 17:00 UTC NOAA

LEPP 271700Z 17010KT 110V240 9999 BKN048 09/05 Q1016


Station Type Date Time Source
LEPP Decoded METAR 2020/01/27 17:00 UTC NOAA

Pamplona / Noain, Spain (LEPP) 42-46N 001-38W 453M
Jan 27, 2020 - 12:00 PM EST / 2020.01.27 1700 UTC
Wind: from the S (170 degrees) at 12 MPH (10 KT) (direction variable):0
Visibility: greater than 7 mile(s):0
Sky conditions: mostly cloudy
Temperature: 48 F (9 C)
Dew Point: 41 F (5 C)
Relative Humidity: 75%
Pressure (altimeter): 30.00 in. Hg (1016 hPa)
ob: LEPP 271700Z 17010KT 110V240 9999 BKN048 09/05 Q1016
cycle: 17

Station Type Date Time Source
LEPP TAF 2020/01/27 15:27 UTC NOAA

TAF LEPP 271400Z 2715/2815 17009KT 9999 SCT020 TX10/2815Z TN04/2807Z
TEMPO 2715/2718 RA
TEMPO 2803/2809 1500 -RA BR BKN010

Example: see airport list